East Hickory, Pennsylvania
Current Conditions -  °F | °C
As of 10:35 PM on Friday 24 Oct 2014 (Local Time) from KFKL Reporting Station
Broken Clouds Broken Clouds  
Wind Chill: 46°   Ceiling: 4800
Heat Index: 46°   Visibility: 10mi
Dew Point: 36°   Wind: 0mph
Humidity: 66%   Direction: NA
Pressure: 30.01"   Gusts: NA
Location:  41.58°N, 79.4°W
Report Text: KFKL 250235Z 00000KT 10SM BKN048 08/02 A3001 RMK AO1
Loading
Personal Weather Stations






























Interactive Weather Map New forecast layout! Learn more

10-Day Weather Forecast

Advertisements
Track Severe Weather on mobile